createdAt,value
2022-08-12T00:00:32.654Z,99736.77
2022-08-12T00:03:03.202Z,99745.02
2022-08-12T00:05:35.199Z,99738.55
2022-08-12T00:08:05.557Z,99736.95
2022-08-12T00:10:36.278Z,99748.21
2022-08-12T00:13:07.370Z,99768.83
2022-08-12T00:15:42.771Z,99777.11
2022-08-12T00:18:13.099Z,99785.59
2022-08-12T00:20:44.004Z,99785.59
2022-08-12T00:23:14.439Z,99773.24
2022-08-12T00:25:51.203Z,99757.52
2022-08-12T00:28:19.865Z,99748.05
2022-08-12T00:30:50.337Z,99742.78
2022-08-12T00:33:23.018Z,99732.89
2022-08-12T00:35:56.719Z,99730.47
2022-08-12T00:38:28.143Z,99730.47
2022-08-12T00:41:00.266Z,99721.20
2022-08-12T00:43:30.750Z,99735.33
2022-08-12T00:46:01.184Z,99747.18
2022-08-12T00:48:32.739Z,99741.14
2022-08-12T00:51:06.518Z,99737.89
2022-08-12T00:53:37.943Z,99725.61
2022-08-12T00:56:09.126Z,99728.44
2022-08-12T00:58:41.655Z,99728.44
2022-08-12T01:01:14.621Z,99734.30
2022-08-12T01:03:47.997Z,99746.41
2022-08-12T01:06:20.141Z,99747.22
2022-08-12T01:08:50.409Z,99755.21
2022-08-12T01:11:21.183Z,99743.13
2022-08-12T01:13:52.607Z,99743.13
2022-08-12T01:16:23.029Z,99754.86
2022-08-12T01:18:55.873Z,99740.94
2022-08-12T01:21:29.150Z,99740.94
2022-08-12T01:24:28.208Z,99747.18
2022-08-12T01:26:57.088Z,99749.00
2022-08-12T01:29:33.558Z,99758.28
2022-08-12T01:32:27.548Z,99743.92
2022-08-12T01:35:34.065Z,99743.92
2022-08-12T01:38:07.400Z,99742.30
2022-08-12T01:40:42.507Z,99747.00
2022-08-12T01:43:14.230Z,99743.95
2022-08-12T01:46:05.092Z,99746.57
2022-08-12T01:48:57.896Z,99749.00
2022-08-12T01:52:21.871Z,99745.77
2022-08-12T01:54:31.970Z,99745.77
2022-08-12T01:57:58.108Z,99745.34
2022-08-12T02:00:06.918Z,99745.34
2022-08-12T02:02:43.102Z,99748.81
2022-08-12T02:05:22.223Z,99747.57
2022-08-12T02:07:57.948Z,99747.20
2022-08-12T02:13:49.229Z,99737.27
2022-08-12T02:16:43.453Z,99737.27
2022-08-12T02:19:49.581Z,99750.98
2022-08-12T02:22:52.073Z,99749.36
2022-08-12T02:25:27.900Z,99749.36
2022-08-12T02:27:58.353Z,99742.50
2022-08-12T02:30:35.364Z,99738.69
2022-08-12T02:33:05.926Z,99747.55
2022-08-12T02:35:38.531Z,99742.92
2022-08-12T02:38:29.501Z,99749.96
2022-08-12T02:43:58.689Z,99752.39
2022-08-12T02:46:34.132Z,99763.49
2022-08-12T02:49:07.593Z,99773.70
2022-08-12T02:51:43.800Z,99773.70
2022-08-12T02:54:14.079Z,99777.39
2022-08-12T02:56:50.441Z,99769.66
2022-08-12T02:59:19.210Z,99776.33
2022-08-12T03:01:54.710Z,99778.17
2022-08-12T03:04:27.898Z,99763.21
2022-08-12T03:07:21.648Z,99761.17
2022-08-12T03:10:15.858Z,99765.41
2022-08-12T03:12:50.932Z,99765.41
2022-08-12T03:15:23.122Z,99765.06
2022-08-12T03:18:24.787Z,99765.44
2022-08-12T03:20:37.386Z,99774.53
2022-08-12T03:23:10.376Z,99787.86
2022-08-12T03:25:43.768Z,99784.47
2022-08-12T03:28:23.638Z,99790.89
2022-08-12T03:30:48.349Z,99790.89
2022-08-12T03:33:20.965Z,99816.13
2022-08-12T03:35:55.706Z,99816.13
2022-08-12T03:38:29.014Z,99817.91
2022-08-12T03:41:02.217Z,99813.26
2022-08-12T03:43:36.142Z,99811.30
2022-08-12T03:46:11.821Z,99811.30
2022-08-12T03:48:42.420Z,99823.64
2022-08-12T03:51:13.175Z,99829.31
2022-08-12T03:53:47.454Z,99845.45
2022-08-12T03:56:20.287Z,99845.45
2022-08-12T03:58:52.089Z,99837.59
2022-08-12T04:01:22.650Z,99847.89
2022-08-12T04:03:54.166Z,99852.30
2022-08-12T04:06:35.006Z,99850.73
2022-08-12T04:08:59.852Z,99861.83
2022-08-12T04:11:32.281Z,99860.83
2022-08-12T04:16:52.580Z,99856.76
2022-08-12T04:19:22.904Z,99858.45
2022-08-12T04:22:01.262Z,99858.45
2022-08-12T04:24:31.505Z,99858.23
2022-08-12T04:27:02.190Z,99859.07
2022-08-12T04:30:21.368Z,99845.94
2022-08-12T04:32:06.709Z,99830.39
2022-08-12T04:34:38.436Z,99830.39
2022-08-12T04:37:08.756Z,99844.11
2022-08-12T04:39:40.375Z,99849.37
2022-08-12T04:42:11.043Z,99830.97
2022-08-12T04:44:41.626Z,99830.97
2022-08-12T04:47:32.952Z,99826.36
2022-08-12T04:50:03.893Z,99826.36
2022-08-12T04:52:36.063Z,99855.41
2022-08-12T04:55:08.398Z,99859.25
2022-08-12T04:57:39.540Z,99868.14
2022-08-12T05:00:12.824Z,99865.09
2022-08-12T05:02:43.827Z,99864.11
2022-08-12T05:05:20.223Z,99864.11
2022-08-12T05:07:54.443Z,99882.07
2022-08-12T05:10:33.871Z,99897.00
2022-08-12T05:12:59.781Z,99909.33
2022-08-12T05:15:30.892Z,99927.91
2022-08-12T05:18:02.091Z,99924.86
2022-08-12T05:20:33.229Z,99924.86
2022-08-12T05:23:26.912Z,99900.84
2022-08-12T05:25:57.482Z,99889.12
2022-08-12T05:28:29.249Z,99889.12
2022-08-12T05:30:59.786Z,99891.77
2022-08-12T05:33:32.243Z,99890.14
2022-08-12T05:36:02.538Z,99890.14
2022-08-12T05:38:32.843Z,99902.08
2022-08-12T05:41:05.656Z,99890.37
2022-08-12T05:43:36.782Z,99892.56
2022-08-12T05:46:07.213Z,99883.24
2022-08-12T05:48:39.978Z,99880.64
2022-08-12T05:51:11.363Z,99880.64
2022-08-12T05:53:42.296Z,99887.11
2022-08-12T05:56:24.818Z,99890.54
2022-08-12T05:58:56.734Z,99905.91
2022-08-12T06:02:10.005Z,99910.14
2022-08-12T06:04:02.462Z,99917.21
2022-08-12T06:06:36.584Z,99924.48
2022-08-12T06:09:06.181Z,99916.97
2022-08-12T06:11:37.824Z,99924.66
2022-08-12T06:14:12.007Z,99920.00
2022-08-12T06:16:42.405Z,99922.84
2022-08-12T06:19:12.802Z,99922.84
2022-08-12T06:21:43.207Z,99931.73
2022-08-12T06:24:13.871Z,99924.05
2022-08-12T06:26:44.204Z,99926.30
2022-08-12T06:29:14.479Z,99945.48
2022-08-12T06:31:47.595Z,99945.48
2022-08-12T06:35:23.332Z,99967.72
2022-08-12T06:36:50.748Z,99980.44
2022-08-12T06:39:21.055Z,99980.44
2022-08-12T06:42:02.510Z,99979.24
2022-08-12T06:44:23.442Z,99977.81
2022-08-12T06:46:58.345Z,99977.81
2022-08-12T06:49:29.412Z,99989.55
2022-08-12T06:51:59.852Z,99989.55
2022-08-12T06:54:32.066Z,100001.88
2022-08-12T06:57:58.099Z,100000.05
2022-08-12T06:59:35.107Z,99986.83
2022-08-12T07:02:06.126Z,99988.45
2022-08-12T07:04:37.784Z,99986.00
2022-08-12T07:07:10.488Z,99986.00
2022-08-12T07:10:03.905Z,99990.97
2022-08-12T07:12:14.536Z,99988.83
2022-08-12T07:14:48.932Z,99991.45
2022-08-12T07:17:18.908Z,99991.45
2022-08-12T07:19:49.171Z,99997.72
2022-08-12T07:22:19.521Z,99999.06
2022-08-12T07:24:50.033Z,99989.03
2022-08-12T07:27:20.206Z,99989.03
2022-08-12T07:29:57.791Z,99984.45
2022-08-12T07:32:23.535Z,99984.45
2022-08-12T07:34:53.977Z,99994.09
2022-08-12T07:37:24.387Z,99993.52
2022-08-12T07:39:59.920Z,99990.44
2022-08-12T07:42:26.954Z,99990.44
2022-08-12T07:44:57.249Z,99986.20
2022-08-12T07:47:27.611Z,99982.83
2022-08-12T07:50:05.745Z,99979.91
2022-08-12T07:52:33.243Z,99966.24
2022-08-12T07:55:04.317Z,99964.03
2022-08-12T07:57:35.780Z,99963.05
2022-08-12T08:00:07.056Z,99966.27
2022-08-12T08:02:37.646Z,99968.92
2022-08-12T08:05:08.778Z,99969.72
2022-08-12T08:07:39.228Z,99969.72
2022-08-12T08:10:10.398Z,99964.29
2022-08-12T08:12:43.351Z,99962.69
2022-08-12T08:15:14.215Z,99962.03
2022-08-12T08:18:05.487Z,99962.03
2022-08-12T08:20:39.451Z,99966.46
2022-08-12T08:23:12.777Z,99962.21
2022-08-12T08:25:44.073Z,99952.47
2022-08-12T08:28:17.520Z,99954.20
2022-08-12T08:30:49.596Z,99956.31
2022-08-12T08:33:23.465Z,99952.73
2022-08-12T08:35:54.276Z,99952.73
2022-08-12T08:38:33.253Z,99965.88
2022-08-12T08:40:56.382Z,99969.54
2022-08-12T08:43:27.574Z,99974.49
2022-08-12T08:46:00.552Z,99970.13
2022-08-12T08:48:31.828Z,99970.13
2022-08-12T08:51:05.061Z,99964.81
2022-08-12T08:53:35.162Z,99966.77
2022-08-12T08:56:05.938Z,99978.81
2022-08-12T08:58:36.452Z,99978.81
2022-08-12T09:01:07.359Z,99965.48
2022-08-12T09:05:09.367Z,99967.19
2022-08-12T09:06:09.825Z,99967.19
2022-08-12T09:08:44.003Z,99962.60
2022-08-12T09:12:06.517Z,99960.12
2022-08-12T09:14:12.434Z,99957.52
2022-08-12T09:16:20.907Z,99957.52
2022-08-12T09:18:53.216Z,99953.68
2022-08-12T09:21:23.736Z,99941.38
2022-08-12T09:24:01.255Z,99938.72
2022-08-12T09:26:28.432Z,99947.80
2022-08-12T09:29:00.397Z,99944.02
2022-08-12T09:32:03.301Z,99946.55
2022-08-12T09:34:26.772Z,99942.02
2022-08-12T09:36:58.147Z,99942.02
2022-08-12T09:40:00.399Z,99948.27
2022-08-12T09:42:33.583Z,99952.86
2022-08-12T09:44:37.973Z,99952.86
2022-08-12T09:46:48.242Z,99955.00
2022-08-12T09:49:18.810Z,99955.00
2022-08-12T09:51:51.219Z,99954.15
2022-08-12T09:54:33.105Z,99948.28
2022-08-12T09:57:01.040Z,99948.28
2022-08-12T10:00:16.571Z,99958.78
2022-08-12T10:02:45.732Z,99958.78
2022-08-12T10:04:30.061Z,99949.70
2022-08-12T10:07:00.803Z,99949.78
2022-08-12T10:09:57.872Z,99949.78
2022-08-12T10:12:10.174Z,99948.97
2022-08-12T10:14:36.638Z,99941.77
2022-08-12T10:17:10.227Z,99941.77
2022-08-12T10:19:42.264Z,99941.09
2022-08-12T10:22:17.098Z,99941.09
2022-08-12T10:24:53.243Z,99944.34
2022-08-12T10:27:21.247Z,99951.97
2022-08-12T10:30:03.963Z,99951.97
2022-08-12T10:32:44.944Z,99937.03
2022-08-12T10:34:57.871Z,99933.54
2022-08-12T10:38:33.538Z,99933.54
2022-08-12T10:40:09.520Z,99932.53
2022-08-12T10:42:35.218Z,99932.53
2022-08-12T10:45:07.720Z,99928.61
2022-08-12T10:48:07.011Z,99928.61
2022-08-12T10:50:28.378Z,99929.80
2022-08-12T10:52:46.240Z,99924.94
2022-08-12T10:55:18.153Z,99920.52
2022-08-12T10:58:13.545Z,99924.99
2022-08-12T11:00:33.665Z,99921.50
2022-08-12T11:04:18.133Z,99925.35
2022-08-12T11:07:08.365Z,99929.63
2022-08-12T11:08:34.548Z,99929.63
2022-08-12T11:10:29.087Z,99933.63
2022-08-12T11:13:00.662Z,99925.66
2022-08-12T11:16:02.406Z,99925.25
2022-08-12T11:18:03.641Z,99925.25
2022-08-12T11:20:46.583Z,99928.77
2022-08-12T11:23:25.994Z,99928.72
2022-08-12T11:25:57.884Z,99928.72
2022-08-12T11:28:33.184Z,99918.49
2022-08-12T11:34:52.523Z,99914.78
2022-08-12T11:42:32.570Z,99910.41
2022-08-12T11:45:01.624Z,99912.96
2022-08-12T11:47:32.445Z,99912.96
2022-08-12T11:50:02.841Z,99912.66
2022-08-12T11:52:55.130Z,99905.73
2022-08-12T11:55:06.134Z,99906.94
2022-08-12T11:58:07.368Z,99902.69
2022-08-12T12:02:01.792Z,99898.98
2022-08-12T12:02:49.455Z,99889.33
2022-08-12T12:05:19.993Z,99891.04
2022-08-12T12:08:37.945Z,99891.04
2022-08-12T12:10:25.400Z,99890.37
2022-08-12T12:12:57.136Z,99885.05
2022-08-12T12:15:40.793Z,99882.98
2022-08-12T12:18:00.177Z,99870.45
2022-08-12T12:20:30.667Z,99870.45
2022-08-12T12:23:01.068Z,99877.28
2022-08-12T12:26:07.578Z,99879.87
2022-08-12T12:28:37.760Z,99879.87
2022-08-12T12:30:57.333Z,99876.95
2022-08-12T12:33:58.138Z,99875.78
2022-08-12T12:36:30.172Z,99875.78
2022-08-12T12:39:00.074Z,99875.67
2022-08-12T12:41:48.210Z,99865.54
2022-08-12T12:44:04.120Z,99859.62
2022-08-12T12:46:35.100Z,99859.94
2022-08-12T12:49:06.909Z,99859.12
2022-08-12T12:51:48.807Z,99859.12
2022-08-12T12:54:10.257Z,99843.65
2022-08-12T12:56:43.299Z,99843.65
2022-08-12T12:59:55.078Z,99846.23
2022-08-12T13:01:45.672Z,99842.61
2022-08-12T13:04:17.731Z,99844.45
2022-08-12T13:06:48.473Z,99847.68
2022-08-12T13:09:22.806Z,99848.30
2022-08-12T13:11:53.501Z,99848.30
2022-08-12T13:14:27.889Z,99833.19
2022-08-12T13:16:57.476Z,99837.31
2022-08-12T13:19:37.880Z,99833.94
2022-08-12T13:22:00.788Z,99833.94
2022-08-12T13:24:32.847Z,99839.70
2022-08-12T13:27:03.246Z,99842.14
2022-08-12T13:29:34.052Z,99836.57
2022-08-12T13:32:19.491Z,99840.39
2022-08-12T13:34:37.110Z,99840.39
2022-08-12T13:37:09.958Z,99845.95
2022-08-12T13:39:40.018Z,99843.13
2022-08-12T13:42:14.605Z,99844.77
2022-08-12T13:44:43.275Z,99849.20
2022-08-12T13:47:18.861Z,99849.20
2022-08-12T13:49:55.439Z,99830.20
2022-08-12T13:52:20.173Z,99830.76
2022-08-12T13:54:54.186Z,99830.76
2022-08-12T13:57:22.849Z,99834.55
2022-08-12T13:59:55.595Z,99844.62
2022-08-12T14:02:26.907Z,99844.62
2022-08-12T14:04:57.264Z,99841.41
2022-08-12T14:07:27.708Z,99843.47
2022-08-12T14:09:58.793Z,99827.86
2022-08-12T14:12:29.265Z,99828.03
2022-08-12T14:14:59.618Z,99828.03
2022-08-12T14:17:31.534Z,99826.42
2022-08-12T14:20:04.021Z,99830.59
2022-08-12T14:22:34.424Z,99818.80
2022-08-12T14:25:06.773Z,99818.80
2022-08-12T14:28:04.185Z,99816.21
2022-08-12T14:30:15.277Z,99811.33
2022-08-12T14:32:43.488Z,99811.33
2022-08-12T14:35:15.633Z,99812.33
2022-08-12T14:37:58.008Z,99802.40
2022-08-12T14:40:25.957Z,99806.77
2022-08-12T14:42:51.691Z,99806.75
2022-08-12T14:45:22.963Z,99806.75
2022-08-12T14:47:58.560Z,99802.73
2022-08-12T14:50:37.431Z,99813.25
2022-08-12T14:55:24.650Z,99807.20
2022-08-12T14:58:03.095Z,99814.52
2022-08-12T15:00:33.899Z,99829.56
2022-08-12T15:03:06.405Z,99829.56
2022-08-12T15:06:05.005Z,99825.31
2022-08-12T15:08:12.558Z,99813.71
2022-08-12T15:10:46.221Z,99818.35
2022-08-12T15:13:20.046Z,99823.59
2022-08-12T15:15:52.671Z,99810.84
2022-08-12T15:18:24.398Z,99810.84
2022-08-12T15:20:56.654Z,99807.20
2022-08-12T15:23:33.148Z,99807.20
2022-08-12T15:26:04.730Z,99804.95
2022-08-12T15:28:41.362Z,99810.58
2022-08-12T15:31:27.382Z,99812.27
2022-08-12T15:33:52.769Z,99817.89
2022-08-12T15:36:36.511Z,99817.89
2022-08-12T15:38:55.708Z,99823.31
2022-08-12T15:41:26.716Z,99816.13
2022-08-12T15:44:37.407Z,99816.58
2022-08-12T15:46:41.142Z,99822.08
2022-08-12T15:49:17.185Z,99822.08
2022-08-12T15:52:05.434Z,99820.77
2022-08-12T15:54:40.999Z,99842.67
2022-08-12T15:57:10.702Z,99842.67
2022-08-12T16:00:00.251Z,99843.03
2022-08-12T16:02:14.450Z,99849.28
2022-08-12T16:04:48.144Z,99854.59
2022-08-12T16:07:20.449Z,99854.59
2022-08-12T16:10:04.859Z,99856.66
2022-08-12T16:12:27.315Z,99856.66
2022-08-12T16:14:58.711Z,99836.80
2022-08-12T16:18:14.877Z,99817.73
2022-08-12T16:20:03.122Z,99811.61
2022-08-12T16:22:35.417Z,99799.81
2022-08-12T16:25:07.730Z,99798.56
2022-08-12T16:27:38.360Z,99795.16
2022-08-12T16:30:11.488Z,99795.16
2022-08-12T16:32:41.952Z,99798.89
2022-08-12T16:35:16.187Z,99810.48
2022-08-12T16:38:27.680Z,99819.19
2022-08-12T16:40:28.228Z,99823.25
2022-08-12T16:43:02.260Z,99823.25
2022-08-12T16:45:32.091Z,99848.14
2022-08-12T16:48:04.208Z,99852.55
2022-08-12T16:50:35.615Z,99859.91
2022-08-12T16:53:09.672Z,99859.91
2022-08-12T16:55:42.399Z,99865.73
2022-08-12T16:58:13.488Z,99865.28
2022-08-12T17:00:48.417Z,99870.30
2022-08-12T17:03:28.565Z,99870.30
2022-08-12T17:06:00.665Z,99871.77
2022-08-12T17:08:37.660Z,99865.52
2022-08-12T17:11:12.075Z,99849.67
2022-08-12T17:13:53.681Z,99856.67
2022-08-12T17:16:18.154Z,99854.23
2022-08-12T17:18:57.442Z,99854.23
2022-08-12T17:21:41.487Z,99871.37
2022-08-12T17:23:55.259Z,99872.69
2022-08-12T17:26:30.830Z,99874.84
2022-08-12T17:29:01.080Z,99878.20
2022-08-12T17:34:51.248Z,99876.56
2022-08-12T17:37:16.874Z,99879.21
2022-08-12T17:40:12.667Z,99887.37
2022-08-12T17:42:32.768Z,99887.37
2022-08-12T17:44:55.031Z,99877.08
2022-08-12T17:47:31.118Z,99878.66
2022-08-12T17:50:03.552Z,99879.19
2022-08-12T17:52:33.369Z,99879.19
2022-08-12T17:55:40.805Z,99870.38
2022-08-12T17:57:41.733Z,99870.38
2022-08-12T18:00:12.865Z,99864.18
2022-08-12T18:04:05.855Z,99857.27
2022-08-12T18:06:01.575Z,99853.52
2022-08-12T18:08:54.502Z,99853.52
2022-08-12T18:12:03.747Z,99840.92
2022-08-12T18:14:15.971Z,99844.42
2022-08-12T18:16:48.328Z,99838.09
2022-08-12T18:19:19.582Z,99827.95
2022-08-12T18:22:01.847Z,99827.95
2022-08-12T18:24:25.092Z,99812.83
2022-08-12T18:26:56.339Z,99804.97
2022-08-12T18:29:41.850Z,99804.97
2022-08-12T18:32:17.954Z,99819.23
2022-08-12T18:34:38.784Z,99823.50
2022-08-12T18:37:40.977Z,99819.94
2022-08-12T18:39:45.825Z,99819.94
2022-08-12T18:42:20.679Z,99827.56
2022-08-12T18:45:00.977Z,99835.83
2022-08-12T18:47:50.185Z,99858.98
2022-08-12T18:50:14.144Z,99874.45
2022-08-12T18:52:48.430Z,99874.45
2022-08-12T18:55:17.967Z,99882.25
2022-08-12T18:58:08.131Z,99883.92
2022-08-12T19:00:22.667Z,99883.92
2022-08-12T19:02:54.942Z,99892.34
2022-08-12T19:05:53.827Z,99892.34
2022-08-12T19:08:00.833Z,99889.94
2022-08-12T19:10:34.969Z,99889.94
2022-08-12T19:13:08.136Z,99884.61
2022-08-12T19:16:01.343Z,99891.03
2022-08-12T19:18:32.952Z,99891.03
2022-08-12T19:21:06.276Z,99886.44
2022-08-12T19:23:36.408Z,99886.44
2022-08-12T19:26:10.708Z,99895.14
2022-08-12T19:28:42.683Z,99898.17
2022-08-12T19:31:21.476Z,99888.30
2022-08-12T19:34:25.583Z,99888.30
2022-08-12T19:36:25.875Z,99890.16
2022-08-12T19:39:00.410Z,99888.44
2022-08-12T19:41:42.469Z,99876.11
2022-08-12T19:44:18.656Z,99878.17
2022-08-12T19:46:37.866Z,99876.62
2022-08-12T19:49:15.010Z,99882.39
2022-08-12T19:51:46.937Z,99882.39
2022-08-12T19:54:19.691Z,99877.06
2022-08-12T19:56:54.426Z,99877.06
2022-08-12T19:59:43.272Z,99874.42
2022-08-12T20:02:03.408Z,99876.08
2022-08-12T20:04:35.487Z,99870.53
2022-08-12T20:07:08.621Z,99863.87
2022-08-12T20:09:42.805Z,99859.23
2022-08-12T20:12:22.634Z,99861.52
2022-08-12T20:14:50.687Z,99861.52
2022-08-12T20:17:23.482Z,99861.13
2022-08-12T20:20:16.583Z,99866.80
2022-08-12T20:22:31.482Z,99857.08
2022-08-12T20:25:03.811Z,99852.85
2022-08-12T20:28:04.884Z,99856.52
2022-08-12T20:30:07.284Z,99856.95
2022-08-12T20:32:47.551Z,99865.88
2022-08-12T20:35:10.603Z,99864.89
2022-08-12T20:38:07.026Z,99861.40
2022-08-12T20:40:14.740Z,99865.48
2022-08-12T20:42:46.730Z,99857.73
2022-08-12T20:45:18.744Z,99859.46
2022-08-12T20:48:02.016Z,99859.46
2022-08-12T20:50:22.808Z,99861.86
2022-08-12T20:52:55.192Z,99861.86
2022-08-12T20:55:42.549Z,99861.53
2022-08-12T20:58:03.168Z,99861.23
2022-08-12T21:00:30.324Z,99855.60
2022-08-12T21:03:00.850Z,99850.17
2022-08-12T21:06:12.116Z,99853.36
2022-08-12T21:08:24.411Z,99853.63
2022-08-12T21:10:55.911Z,99853.00
2022-08-12T21:13:27.330Z,99846.18
2022-08-12T21:16:00.170Z,99846.18
2022-08-12T21:18:31.784Z,99851.65
2022-08-12T21:21:02.172Z,99851.05
2022-08-12T21:23:38.521Z,99853.86
2022-08-12T21:26:05.270Z,99853.86
2022-08-12T21:28:35.816Z,99863.26
2022-08-12T21:32:34.737Z,99862.24
2022-08-12T21:33:58.853Z,99862.24
2022-08-12T21:36:22.219Z,99849.55
2022-08-12T21:38:43.266Z,99852.20
2022-08-12T21:41:15.932Z,99850.20
2022-08-12T21:43:48.713Z,99850.20
2022-08-12T21:46:34.629Z,99844.52
2022-08-12T21:48:56.823Z,99850.17
2022-08-12T21:51:24.080Z,99850.39
2022-08-12T21:54:07.307Z,99849.19
2022-08-12T21:56:34.723Z,99844.74
2022-08-12T21:59:00.097Z,99844.74
2022-08-12T22:01:30.564Z,99839.26
2022-08-12T22:04:11.612Z,99844.33
2022-08-12T22:06:43.954Z,99844.33
2022-08-12T22:09:09.018Z,99839.48
2022-08-12T22:11:43.740Z,99834.02
2022-08-12T22:14:21.714Z,99832.61
2022-08-12T22:16:46.752Z,99830.56
2022-08-12T22:19:17.744Z,99827.97
2022-08-12T22:21:53.271Z,99827.97
2022-08-12T22:24:27.168Z,99829.98
2022-08-12T22:26:58.888Z,99828.01
2022-08-12T22:29:29.244Z,99828.01
2022-08-12T22:31:59.960Z,99832.25
2022-08-12T22:34:33.308Z,99832.25
2022-08-12T22:37:02.775Z,99833.86
2022-08-12T22:39:33.552Z,99843.39
2022-08-12T22:42:05.972Z,99843.39
2022-08-12T22:44:54.224Z,99831.28
2022-08-12T22:47:08.850Z,99838.14
2022-08-12T22:49:53.112Z,99838.14
2022-08-12T22:52:11.379Z,99844.61
2022-08-12T22:55:00.161Z,99842.00
2022-08-12T22:57:14.497Z,99834.55
2022-08-12T22:59:55.829Z,99835.57
2022-08-12T23:02:17.119Z,99835.20
2022-08-12T23:04:49.665Z,99838.24
2022-08-12T23:07:20.357Z,99837.84
2022-08-12T23:09:53.713Z,99831.38
2022-08-12T23:12:25.146Z,99831.38
2022-08-12T23:14:55.602Z,99833.37
2022-08-12T23:17:41.048Z,99829.76
2022-08-12T23:19:59.718Z,99821.27
2022-08-12T23:22:36.221Z,99821.27
2022-08-12T23:25:03.985Z,99827.75
2022-08-12T23:27:44.231Z,99823.90
2022-08-12T23:30:18.401Z,99826.13
2022-08-12T23:32:40.152Z,99830.37
2022-08-12T23:35:10.821Z,99827.53
2022-08-12T23:37:47.609Z,99826.13
2022-08-12T23:40:17.951Z,99826.13
2022-08-12T23:42:47.742Z,99823.10
2022-08-12T23:45:20.285Z,99815.19
2022-08-12T23:47:50.365Z,99815.19
2022-08-12T23:50:22.418Z,99813.78
2022-08-12T23:52:54.386Z,99815.39
2022-08-12T23:55:29.058Z,99815.39
2022-08-12T23:58:21.165Z,99811.56
